Time;durP1;ratioP1;P1;durP2;ratioP2;P2;SDS_P1;SDS_P2;PMS_P1;PMS_P2;Temp;Humidity;BMP_temperature;BMP_pressure;BME280_temperature;BME280_humidity;BME280_pressure;Samples;Min_cycle;Max_cycle;Signal;HPM_P1;HPM_P2
2023/02/08 00:01:06;;;;;;;13.60;10.97;;;1.40;99.90;;;;;;5017318;28;20477;-80
2023/02/08 00:03:31;;;;;;;14.10;11.50;;;1.20;99.90;;;;;;5023039;28;20417;-80
2023/02/08 00:05:57;;;;;;;16.10;11.77;;;1.40;99.90;;;;;;5015767;28;20786;-80
2023/02/08 00:08:22;;;;;;;14.93;11.37;;;1.40;99.90;;;;;;5023110;28;20228;-77
2023/02/08 00:10:48;;;;;;;13.77;11.50;;;1.50;99.90;;;;;;5033084;28;20651;-81
2023/02/08 00:13:14;;;;;;;15.30;12.40;;;1.50;99.90;;;;;;4998394;28;20722;-80
2023/02/08 00:15:41;;;;;;;13.37;11.37;;;1.20;99.90;;;;;;4999112;28;20262;-78
2023/02/08 00:18:07;;;;;;;17.03;11.33;;;1.20;99.90;;;;;;5014327;28;20179;-80
2023/02/08 00:20:33;;;;;;;15.70;11.67;;;1.40;99.90;;;;;;5014763;28;20845;-76
2023/02/08 00:22:58;;;;;;;17.20;11.37;;;1.30;99.90;;;;;;4997306;28;20417;-79
2023/02/08 00:25:24;;;;;;;18.40;13.07;;;1.40;99.90;;;;;;5015228;28;20197;-79
2023/02/08 00:27:50;;;;;;;15.37;12.07;;;1.40;99.90;;;;;;4998147;28;20383;-78
2023/02/08 00:30:15;;;;;;;16.27;11.87;;;1.10;99.90;;;;;;4997885;28;20301;-78
2023/02/08 00:32:41;;;;;;;15.93;12.20;;;1.20;99.90;;;;;;5032715;28;20600;-75
2023/02/08 00:35:07;;;;;;;15.77;13.00;;;1.40;99.90;;;;;;5014899;28;20178;-80
2023/02/08 00:37:33;;;;;;;15.67;12.77;;;1.10;99.90;;;;;;4998271;28;20182;-78
2023/02/08 00:40:01;;;;;;;16.60;11.97;;;1.20;99.90;;;;;;5014363;28;20387;-79
2023/02/08 00:42:28;;;;;;;15.40;12.57;;;1.30;99.90;;;;;;4998495;28;20179;-78
2023/02/08 00:44:53;;;;;;;14.20;11.93;;;1.10;99.90;;;;;;5025667;28;20424;-80
2023/02/08 00:47:19;;;;;;;17.50;13.00;;;1.20;99.90;;;;;;5052296;28;20431;-80
2023/02/08 00:49:44;;;;;;;13.97;11.30;;;1.10;99.90;;;;;;5034168;28;20198;-78
2023/02/08 00:52:10;;;;;;;14.93;12.33;;;1.10;99.90;;;;;;5017653;28;20185;-77
2023/02/08 00:54:36;;;;;;;16.93;12.83;;;1.10;99.90;;;;;;5052133;28;20182;-78
2023/02/08 00:57:01;;;;;;;15.43;11.77;;;1.10;99.90;;;;;;5034635;28;20205;-80
2023/02/08 00:59:27;;;;;;;14.40;11.63;;;1.00;99.90;;;;;;5052223;28;20174;-79
2023/02/08 01:01:53;;;;;;;16.93;12.40;;;1.10;99.90;;;;;;5052083;28;20201;-77
2023/02/08 01:04:18;;;;;;;17.47;12.87;;;1.10;99.90;;;;;;5052454;28;20174;-76
2023/02/08 01:06:44;;;;;;;15.20;11.87;;;1.10;99.90;;;;;;5034036;28;20781;-78
2023/02/08 01:09:09;;;;;;;14.27;11.77;;;1.20;99.90;;;;;;5037249;28;20308;-79
2023/02/08 01:11:35;;;;;;;12.90;11.10;;;1.00;99.90;;;;;;5038210;28;20263;-80
2023/02/08 01:14:01;;;;;;;16.20;13.80;;;1.10;99.90;;;;;;5055194;28;20276;-76
2023/02/08 01:16:31;;;;;;;15.43;12.00;;;1.00;99.90;;;;;;5038299;28;20267;-78
2023/02/08 01:18:58;;;;;;;15.53;12.17;;;1.00;99.90;;;;;;5055949;28;20186;-77
2023/02/08 01:21:32;;;;;;;15.40;13.07;;;1.00;99.90;;;;;;5020286;28;20439;-78
2023/02/08 01:23:58;;;;;;;15.40;12.07;;;1.10;99.90;;;;;;5055513;28;20412;-78
2023/02/08 01:26:24;;;;;;;16.23;12.97;;;1.20;99.90;;;;;;5055971;28;20415;-78
2023/02/08 01:28:51;;;;;;;14.33;11.97;;;0.90;99.90;;;;;;5055796;28;20925;-76
2023/02/08 01:31:29;;;;;;;14.80;11.70;;;0.80;99.90;;;;;;5021254;28;20572;-77
2023/02/08 01:33:56;;;;;;;17.00;12.20;;;0.90;99.90;;;;;;5037238;28;20826;-79
2023/02/08 01:36:22;;;;;;;16.90;12.87;;;0.90;99.90;;;;;;5055992;28;20409;-77
2023/02/08 01:38:48;;;;;;;17.80;13.50;;;0.70;99.90;;;;;;5034496;28;20417;-77
2023/02/08 01:41:20;;;;;;;17.30;12.70;;;0.90;99.90;;;;;;5017247;28;20433;-78
2023/02/08 01:44:04;;;;;;;17.80;12.60;;;0.90;99.90;;;;;;5018114;28;20189;-76
2023/02/08 01:46:32;;;;;;;16.73;13.00;;;0.90;99.90;;;;;;5037385;28;20503;-77
2023/02/08 01:49:22;;;;;;;16.67;12.53;;;0.90;99.90;;;;;;5036557;28;20383;-76
2023/02/08 01:51:53;;;;;;;16.77;12.63;;;1.00;99.90;;;;;;5020101;28;20444;-78
2023/02/08 01:54:21;;;;;;;15.37;12.43;;;1.00;99.90;;;;;;5036560;28;20943;-79
2023/02/08 01:56:48;;;;;;;19.67;14.33;;;0.80;99.90;;;;;;5020115;28;20528;-79
2023/02/08 01:59:28;;;;;;;18.40;13.87;;;0.90;99.90;;;;;;5037380;28;20428;-78
2023/02/08 02:01:56;;;;;;;16.20;12.70;;;0.90;99.90;;;;;;5037621;28;20419;-79
2023/02/08 02:04:22;;;;;;;15.77;12.00;;;0.70;99.90;;;;;;5020580;28;20932;-79
2023/02/08 02:06:52;;;;;;;18.70;14.00;;;0.80;99.90;;;;;;5038664;28;20398;-79
2023/02/08 02:09:32;;;;;;;17.10;12.90;;;0.80;99.90;;;;;;5020295;28;20547;-79
2023/02/08 02:11:58;;;;;;;16.43;12.50;;;1.00;99.90;;;;;;5037112;28;20547;-79
2023/02/08 02:14:25;;;;;;;14.33;10.97;;;0.90;99.90;;;;;;5036779;28;20819;-80
2023/02/08 02:16:51;;;;;;;15.63;11.63;;;0.80;99.90;;;;;;5037208;28;20430;-78
2023/02/08 02:19:30;;;;;;;15.30;11.60;;;0.70;99.90;;;;;;5036114;28;20492;-79
2023/02/08 02:22:04;;;;;;;14.60;10.10;;;0.60;99.90;;;;;;5020827;28;20212;-77
2023/02/08 02:24:52;;;;;;;15.10;10.97;;;0.80;99.90;;;;;;5021413;28;20386;-80
2023/02/08 02:27:35;;;;;;;15.87;10.40;;;0.80;99.90;;;;;;5021788;28;20408;-78
2023/02/08 02:30:31;;;;;;;13.23;10.87;;;0.60;99.90;;;;;;5055743;28;20448;-78
2023/02/08 02:33:20;;;;;;;12.93;9.00;;;0.60;99.90;;;;;;5038075;28;20416;-78
2023/02/08 02:36:00;;;;;;;13.00;10.37;;;0.50;99.90;;;;;;5037315;28;20951;-77
2023/02/08 02:38:35;;;;;;;14.20;10.07;;;0.60;99.90;;;;;;5037730;28;20776;-77
2023/02/08 02:44:30;;;;;;;13.40;9.33;;;0.50;99.90;;;;;;4994193;28;20470;-78
2023/02/08 02:47:10;;;;;;;13.13;9.47;;;0.60;99.90;;;;;;5020992;28;20431;-77
2023/02/08 02:49:46;;;;;;;13.50;9.70;;;0.50;99.90;;;;;;5039181;28;20429;-78
2023/02/08 02:52:18;;;;;;;13.30;9.00;;;0.50;99.90;;;;;;5039442;28;20553;-80
2023/02/08 02:54:51;;;;;;;13.37;10.50;;;0.70;99.90;;;;;;5038842;28;20444;-79
2023/02/08 02:57:23;;;;;;;11.73;9.30;;;0.70;99.90;;;;;;5022236;28;20420;-77
2023/02/08 02:59:49;;;;;;;12.67;9.60;;;0.60;99.90;;;;;;5039050;28;20387;-77
2023/02/08 03:02:14;;;;;;;12.57;9.60;;;0.60;99.90;;;;;;5039636;28;20391;-78
2023/02/08 03:04:40;;;;;;;12.70;10.00;;;0.50;99.90;;;;;;5038297;28;21010;-77
2023/02/08 03:07:15;;;;;;;10.50;8.83;;;0.50;99.90;;;;;;5039014;28;20562;-80
2023/02/08 03:09:43;;;;;;;14.00;9.80;;;0.60;99.90;;;;;;5037933;28;20215;-79
2023/02/08 03:12:28;;;;;;;13.60;10.07;;;0.70;99.90;;;;;;5028251;28;20439;-79
2023/02/08 03:15:25;;;;;;;12.40;8.90;;;0.40;99.90;;;;;;5063695;28;20910;-79
2023/02/08 03:18:36;;;;;;;12.47;9.20;;;0.70;99.90;;;;;;5045797;28;20438;-79
2023/02/08 03:21:16;;;;;;;10.30;8.13;;;0.50;99.90;;;;;;5044208;28;20477;-79
2023/02/08 03:23:56;;;;;;;13.47;8.87;;;0.80;99.90;;;;;;5062868;28;20420;-79
2023/02/08 03:26:25;;;;;;;13.37;9.27;;;0.70;99.90;;;;;;5063752;28;20420;-79
2023/02/08 03:29:30;;;;;;;10.87;8.67;;;0.50;99.90;;;;;;5045347;28;20446;-79
2023/02/08 03:32:05;;;;;;;12.03;9.23;;;0.60;99.90;;;;;;4961843;28;20466;-79
2023/02/08 03:34:43;;;;;;;10.17;8.07;;;0.60;99.90;;;;;;4962333;28;20401;-79
2023/02/08 03:37:44;;;;;;;11.40;7.90;;;0.70;99.90;;;;;;5024353;28;20443;-79
2023/02/08 03:40:20;;;;;;;11.40;8.00;;;0.60;99.90;;;;;;4971800;28;20774;-79
2023/02/08 03:42:48;;;;;;;10.50;7.80;;;0.70;99.90;;;;;;5008559;28;20423;-78
2023/02/08 03:45:24;;;;;;;10.10;7.20;;;0.70;99.90;;;;;;5038902;28;20618;-79
2023/02/08 03:47:55;;;;;;;8.03;6.97;;;0.70;99.90;;;;;;5044994;28;20448;-79
2023/02/08 03:50:22;;;;;;;9.27;7.70;;;0.70;99.90;;;;;;5062408;28;20475;-79
2023/02/08 03:52:50;;;;;;;12.83;7.30;;;0.80;99.90;;;;;;5063369;28;20421;-79
2023/02/08 03:55:26;;;;;;;10.87;7.90;;;0.60;99.90;;;;;;5028645;28;20428;-79
2023/02/08 03:57:58;;;;;;;10.93;8.00;;;0.80;99.90;;;;;;5063219;28;20508;-79
2023/02/08 04:00:24;;;;;;;11.97;8.70;;;0.60;99.90;;;;;;5028826;28;20600;-79
2023/02/08 04:02:55;;;;;;;12.60;8.37;;;0.90;99.90;;;;;;5045235;28;20431;-79
2023/02/08 04:05:22;;;;;;;11.50;8.67;;;0.80;99.90;;;;;;5055716;28;20801;-79
2023/02/08 04:07:48;;;;;;;13.33;8.57;;;0.80;99.90;;;;;;5038870;28;20403;-79
2023/02/08 04:10:14;;;;;;;14.00;9.17;;;0.90;99.90;;;;;;5056807;28;20525;-79
2023/02/08 04:12:40;;;;;;;13.03;9.27;;;0.90;99.90;;;;;;5040950;28;20405;-79
2023/02/08 04:15:06;;;;;;;14.03;9.30;;;0.90;99.90;;;;;;5040876;28;20424;-79
2023/02/08 04:17:32;;;;;;;12.53;8.60;;;0.90;99.90;;;;;;5059114;28;20483;-79
2023/02/08 04:19:59;;;;;;;10.80;7.57;;;0.80;99.90;;;;;;5058696;28;20939;-79
2023/02/08 04:22:25;;;;;;;8.30;7.00;;;0.70;99.90;;;;;;5058064;28;20174;-79
2023/02/08 04:24:50;;;;;;;10.37;7.50;;;0.70;99.90;;;;;;5041047;28;20399;-79
2023/02/08 04:27:16;;;;;;;8.50;6.60;;;0.70;99.90;;;;;;5040847;28;20427;-79
2023/02/08 04:29:42;;;;;;;10.37;6.73;;;0.70;99.90;;;;;;5058579;28;20202;-79
2023/02/08 04:32:10;;;;;;;11.60;8.30;;;0.50;99.90;;;;;;5024559;28;20686;-79
2023/02/08 04:34:37;;;;;;;7.90;6.57;;;0.60;99.90;;;;;;5041295;28;20185;-79
2023/02/08 04:37:03;;;;;;;8.57;6.67;;;0.60;99.90;;;;;;5059138;28;20424;-79
2023/02/08 04:39:29;;;;;;;9.27;7.60;;;0.70;99.90;;;;;;5050341;28;20571;-79
2023/02/08 04:41:55;;;;;;;9.10;7.20;;;0.80;99.90;;;;;;5021262;28;20993;-79
2023/02/08 04:44:20;;;;;;;9.40;6.90;;;0.80;99.90;;;;;;5015243;28;20210;-79
2023/02/08 04:46:46;;;;;;;9.90;7.50;;;0.70;99.90;;;;;;5044847;28;20181;-79
2023/02/08 04:49:11;;;;;;;11.10;7.63;;;0.80;99.90;;;;;;5045905;28;20174;-79
2023/02/08 04:51:37;;;;;;;11.10;7.50;;;0.70;99.90;;;;;;5045343;28;20208;-79
2023/02/08 04:54:03;;;;;;;11.50;8.23;;;0.60;99.90;;;;;;5045376;28;20192;-79
2023/02/08 04:56:28;;;;;;;10.27;8.63;;;0.70;99.90;;;;;;5045916;28;20178;-79
2023/02/08 04:58:54;;;;;;;11.73;7.60;;;0.60;99.90;;;;;;5062867;28;20182;-78
2023/02/08 05:01:20;;;;;;;9.03;7.40;;;0.70;99.90;;;;;;5044514;28;20205;-79
2023/02/08 05:03:46;;;;;;;10.00;6.53;;;0.70;99.90;;;;;;5045451;28;20194;-78
2023/02/08 05:06:12;;;;;;;11.17;7.60;;;0.60;99.90;;;;;;5028870;28;20185;-79
2023/02/08 05:08:37;;;;;;;9.57;7.07;;;0.50;99.90;;;;;;5044872;28;20436;-79
2023/02/08 05:11:03;;;;;;;12.00;7.13;;;0.50;99.90;;;;;;5045782;28;20252;-79
2023/02/08 05:13:29;;;;;;;8.50;6.90;;;0.30;99.90;;;;;;5045413;28;20181;-79
2023/02/08 05:15:55;;;;;;;9.33;6.47;;;0.40;99.90;;;;;;5046407;28;20395;-79
2023/02/08 05:18:21;;;;;;;11.00;7.50;;;0.50;99.90;;;;;;5045852;28;20443;-79
2023/02/08 05:20:58;;;;;;;10.70;6.20;;;0.50;99.90;;;;;;5029091;28;20209;-79
2023/02/08 05:23:24;;;;;;;10.70;7.03;;;0.30;99.90;;;;;;5061804;28;20696;-79
2023/02/08 05:25:50;;;;;;;8.90;6.70;;;0.40;99.90;;;;;;5063195;28;20459;-78
2023/02/08 05:28:16;;;;;;;11.00;7.27;;;0.40;99.90;;;;;;5063506;28;20599;-79
2023/02/08 05:30:42;;;;;;;9.47;6.60;;;0.30;99.90;;;;;;5045382;28;20989;-78
2023/02/08 05:33:08;;;;;;;11.50;8.10;;;0.20;99.90;;;;;;5028748;28;20391;-79
2023/02/08 05:35:33;;;;;;;11.40;7.80;;;0.10;99.90;;;;;;5063889;28;20790;-79
2023/02/08 05:37:59;;;;;;;10.27;7.60;;;0.20;99.90;;;;;;5045543;28;20231;-79
2023/02/08 05:40:25;;;;;;;9.23;6.80;;;0.30;99.90;;;;;;5028409;28;20226;-79
2023/02/08 05:42:50;;;;;;;9.40;6.90;;;0.40;99.90;;;;;;5025851;28;20189;-79
2023/02/08 05:45:16;;;;;;;12.60;9.07;;;0.50;99.90;;;;;;5039227;28;20207;-79
2023/02/08 05:47:42;;;;;;;11.90;8.17;;;0.30;99.90;;;;;;5045178;28;20241;-79
2023/02/08 05:50:08;;;;;;;16.53;9.30;;;0.30;99.90;;;;;;5062905;28;20233;-79
2023/02/08 05:52:34;;;;;;;12.70;9.33;;;0.10;99.90;;;;;;5044933;28;20635;-80
2023/02/08 05:54:59;;;;;;;14.00;9.00;;;0.10;99.90;;;;;;5044971;28;20393;-79
2023/02/08 05:57:25;;;;;;;17.30;11.67;;;-0.10;99.90;;;;;;5044859;28;20208;-79
2023/02/08 05:59:51;;;;;;;15.40;11.27;;;0.10;99.90;;;;;;5045790;28;20259;-79
2023/02/08 06:02:16;;;;;;;19.13;11.47;;;0.00;99.90;;;;;;5062728;28;20193;-79
2023/02/08 06:04:42;;;;;;;20.67;11.17;;;0.10;99.90;;;;;;5062931;28;20197;-79
2023/02/08 06:07:07;;;;;;;16.73;11.30;;;0.10;99.90;;;;;;5063987;28;20186;-79
2023/02/08 06:09:33;;;;;;;16.00;11.20;;;0.00;99.90;;;;;;5044831;28;20215;-79
2023/02/08 06:11:59;;;;;;;18.50;12.27;;;-0.10;99.90;;;;;;5063226;28;20213;-79
2023/02/08 06:14:24;;;;;;;16.20;11.20;;;0.00;99.90;;;;;;5046123;28;20185;-79
2023/02/08 06:16:50;;;;;;;18.60;12.37;;;0.00;99.90;;;;;;5045236;28;20185;-79
2023/02/08 06:19:16;;;;;;;14.87;11.03;;;-0.10;99.90;;;;;;5046427;28;20213;-79
2023/02/08 06:21:42;;;;;;;17.23;11.70;;;-0.10;99.90;;;;;;5044150;28;21015;-79
2023/02/08 06:24:09;;;;;;;20.20;12.17;;;0.20;99.90;;;;;;5045718;28;20385;-80
2023/02/08 06:26:34;;;;;;;15.70;11.40;;;0.00;99.90;;;;;;5045311;28;20202;-79
2023/02/08 06:29:00;;;;;;;20.73;12.27;;;0.20;99.90;;;;;;5044866;28;20443;-79
2023/02/08 06:31:26;;;;;;;18.20;11.80;;;0.10;99.90;;;;;;5062485;28;20213;-78
2023/02/08 06:33:51;;;;;;;16.63;11.90;;;0.00;99.90;;;;;;5044569;28;20177;-79
2023/02/08 06:36:17;;;;;;;18.67;12.30;;;0.10;99.90;;;;;;5045040;28;20246;-79
2023/02/08 06:38:42;;;;;;;16.43;11.47;;;-0.20;99.90;;;;;;5042645;28;20174;-79
2023/02/08 06:41:08;;;;;;;19.10;12.37;;;-0.10;99.90;;;;;;5024394;28;20214;-79
2023/02/08 06:43:34;;;;;;;18.37;11.23;;;0.00;99.90;;;;;;5014762;28;20277;-79
2023/02/08 06:46:03;;;;;;;18.67;12.63;;;-0.20;99.90;;;;;;5013729;28;20274;-79
2023/02/08 06:48:29;;;;;;;21.37;13.00;;;-0.20;99.90;;;;;;4999549;28;20198;-79
2023/02/08 06:50:55;;;;;;;21.43;13.13;;;-0.10;99.90;;;;;;5020574;28;20436;-79
2023/02/08 06:53:21;;;;;;;19.20;12.47;;;-0.20;99.90;;;;;;5019671;28;20778;-79
2023/02/08 06:55:48;;;;;;;18.87;11.90;;;0.00;99.90;;;;;;5004982;28;20175;-79
2023/02/08 06:58:13;;;;;;;22.00;12.60;;;0.00;99.90;;;;;;4988435;28;20190;-79
2023/02/08 07:00:39;;;;;;;19.83;13.53;;;-0.10;99.90;;;;;;5022189;28;20473;-79
2023/02/08 07:03:05;;;;;;;17.53;12.30;;;0.00;99.90;;;;;;5022032;28;20171;-79
2023/02/08 07:05:33;;;;;;;16.77;11.87;;;-0.20;99.90;;;;;;5021667;28;20393;-79
2023/02/08 07:07:59;;;;;;;17.97;11.70;;;-0.10;99.90;;;;;;5023075;28;20179;-79
2023/02/08 07:10:25;;;;;;;19.13;12.23;;;0.10;99.90;;;;;;5023106;28;20633;-79
2023/02/08 07:12:50;;;;;;;18.43;12.00;;;-0.20;99.90;;;;;;5022297;28;20190;-79
2023/02/08 07:15:16;;;;;;;20.53;12.00;;;0.10;99.90;;;;;;4990220;28;20547;-78
2023/02/08 07:17:42;;;;;;;19.43;11.77;;;-0.20;99.90;;;;;;5005998;28;20175;-79
2023/02/08 07:20:08;;;;;;;15.97;11.00;;;-0.10;99.90;;;;;;5023377;28;20241;-79
2023/02/08 07:22:34;;;;;;;15.37;11.17;;;0.10;99.90;;;;;;5005522;28;20187;-79
2023/02/08 07:24:59;;;;;;;16.80;11.80;;;0.00;99.90;;;;;;4989564;28;20961;-79
2023/02/08 07:27:25;;;;;;;15.00;11.10;;;-0.10;99.90;;;;;;5024023;28;20659;-79
2023/02/08 07:29:51;;;;;;;16.10;11.33;;;-0.10;99.90;;;;;;5022237;28;20757;-78
2023/02/08 07:32:16;;;;;;;14.73;10.50;;;-0.10;99.90;;;;;;5006216;28;20225;-79
2023/02/08 07:34:42;;;;;;;16.20;10.87;;;-0.10;99.90;;;;;;5005505;28;20242;-79
2023/02/08 07:37:08;;;;;;;17.37;11.30;;;-0.10;99.90;;;;;;5022938;28;20318;-79
2023/02/08 07:39:34;;;;;;;18.77;11.10;;;-0.10;99.90;;;;;;5032286;28;20437;-79
2023/02/08 07:41:59;;;;;;;13.60;9.97;;;0.20;99.90;;;;;;5025139;28;20670;-79
2023/02/08 07:44:25;;;;;;;14.93;9.77;;;0.10;99.90;;;;;;5008264;28;20187;-79
2023/02/08 07:46:51;;;;;;;16.13;10.13;;;0.20;99.90;;;;;;5025164;28;20210;-79
2023/02/08 07:49:17;;;;;;;14.53;10.50;;;0.30;99.90;;;;;;5024557;28;20467;-79
2023/02/08 07:51:42;;;;;;;15.67;10.10;;;0.60;99.90;;;;;;5042970;28;20780;-79
2023/02/08 07:54:08;;;;;;;13.80;10.70;;;0.60;99.90;;;;;;5042675;28;20639;-79
2023/02/08 07:56:34;;;;;;;13.20;10.03;;;0.70;99.90;;;;;;5008950;28;20193;-80
2023/02/08 07:58:59;;;;;;;15.63;10.77;;;0.70;99.90;;;;;;5008477;28;20246;-79
2023/02/08 08:01:25;;;;;;;12.07;9.57;;;0.80;99.90;;;;;;5042326;28;20691;-79
2023/02/08 08:03:51;;;;;;;14.60;9.60;;;0.90;99.90;;;;;;5024568;28;20210;-79
2023/02/08 08:06:18;;;;;;;14.00;10.23;;;1.00;99.90;;;;;;5024663;28;20183;-80
2023/02/08 08:08:46;;;;;;;13.20;10.50;;;1.10;99.90;;;;;;5041862;28;20468;-79
2023/02/08 08:11:13;;;;;;;12.00;8.70;;;1.40;99.90;;;;;;5024142;28;20887;-79
2023/02/08 08:13:39;;;;;;;11.70;8.37;;;1.50;99.90;;;;;;5023198;28;20784;-79
2023/02/08 08:16:04;;;;;;;12.93;8.40;;;1.50;99.90;;;;;;5007501;28;20455;-79
2023/02/08 08:18:30;;;;;;;11.70;8.03;;;1.90;99.90;;;;;;5027604;28;20182;-79
2023/02/08 08:20:56;;;;;;;11.87;7.27;;;2.00;99.90;;;;;;5045820;28;20202;-79
2023/02/08 08:23:22;;;;;;;8.50;7.30;;;2.50;99.90;;;;;;5028226;28;20189;-79
2023/02/08 08:25:49;;;;;;;11.80;8.20;;;2.50;99.90;;;;;;5046250;28;20178;-78
2023/02/08 08:28:15;;;;;;;15.10;9.30;;;3.00;99.90;;;;;;5011433;28;20404;-79
2023/02/08 08:30:44;;;;;;;12.67;8.73;;;3.30;99.90;;;;;;5012570;28;20458;-79
2023/02/08 08:33:12;;;;;;;9.70;7.60;;;3.60;99.90;;;;;;5046353;28;20413;-79
2023/02/08 08:35:38;;;;;;;10.13;7.80;;;3.60;99.90;;;;;;5045750;28;20939;-79
2023/02/08 08:38:04;;;;;;;11.20;8.77;;;3.90;99.90;;;;;;5045199;28;20413;-79
2023/02/08 08:40:30;;;;;;;13.53;9.13;;;4.10;99.90;;;;;;5045443;28;20537;-79
2023/02/08 08:42:56;;;;;;;13.53;10.40;;;4.20;99.90;;;;;;5028377;28;20194;-79
2023/02/08 08:45:22;;;;;;;13.87;10.00;;;4.60;99.90;;;;;;5028280;28;20208;-79
2023/02/08 08:47:48;;;;;;;14.27;10.43;;;4.60;99.90;;;;;;5027561;28;20420;-79
2023/02/08 08:50:14;;;;;;;14.23;8.87;;;4.90;99.90;;;;;;5040477;28;20500;-80
2023/02/08 08:52:41;;;;;;;11.60;8.13;;;5.10;99.70;;;;;;5006392;28;20678;-79
2023/02/08 08:55:08;;;;;;;11.87;8.00;;;5.30;98.70;;;;;;5025553;28;20242;-79
2023/02/08 08:57:33;;;;;;;10.50;7.83;;;5.30;98.70;;;;;;5026980;28;20504;-79
2023/02/08 08:59:59;;;;;;;14.20;8.77;;;5.70;98.90;;;;;;5044517;28;20429;-79
2023/02/08 09:02:25;;;;;;;11.00;7.73;;;5.90;98.30;;;;;;5026695;28;20189;-78
2023/02/08 09:04:50;;;;;;;15.43;9.73;;;5.90;97.00;;;;;;5026882;28;20187;-79
2023/02/08 09:07:16;;;;;;;9.10;7.37;;;5.90;97.30;;;;;;5026599;28;20197;-79
2023/02/08 09:09:46;;;;;;;11.90;8.30;;;6.20;95.90;;;;;;5026047;28;20214;-78
2023/02/08 09:12:13;;;;;;;8.27;7.37;;;6.30;95.70;;;;;;5020510;28;20182;-78
2023/02/08 09:14:39;;;;;;;8.57;7.60;;;6.40;95.10;;;;;;5019792;28;20509;-80
2023/02/08 09:17:05;;;;;;;9.40;7.87;;;6.50;95.50;;;;;;5002452;28;20445;-77
2023/02/08 09:19:30;;;;;;;9.10;7.27;;;6.40;95.10;;;;;;5018769;28;20233;-80
2023/02/08 09:21:56;;;;;;;12.40;8.40;;;6.80;95.30;;;;;;5000998;28;20248;-80
2023/02/08 09:24:22;;;;;;;9.10;6.70;;;6.50;94.60;;;;;;5018688;28;20273;-80
2023/02/08 09:26:48;;;;;;;8.73;6.93;;;6.70;93.90;;;;;;5018249;28;20417;-80
2023/02/08 09:29:14;;;;;;;9.83;7.67;;;7.10;92.60;;;;;;5017480;28;20789;-78
2023/02/08 09:31:40;;;;;;;10.20;8.17;;;7.20;93.70;;;;;;5035300;28;20659;-78
2023/02/08 09:34:06;;;;;;;7.43;6.43;;;7.10;94.30;;;;;;5017961;28;20175;-80
2023/02/08 09:36:35;;;;;;;9.30;6.20;;;7.60;93.80;;;;;;5017600;28;20452;-79
2023/02/08 09:39:06;;;;;;;8.87;6.93;;;7.60;92.40;;;;;;5017521;28;20875;-80
2023/02/08 09:41:45;;;;;;;8.10;6.40;;;7.80;92.40;;;;;;5017672;28;20440;-78
2023/02/08 09:44:18;;;;;;;8.80;5.90;;;7.90;91.80;;;;;;5035412;28;20413;-80
2023/02/08 09:47:08;;;;;;;6.40;5.43;;;8.00;90.20;;;;;;5017052;28;20429;-78
2023/02/08 09:49:39;;;;;;;6.03;5.00;;;8.10;86.60;;;;;;5017528;28;20469;-78
2023/02/08 09:52:12;;;;;;;5.67;4.83;;;8.20;86.60;;;;;;5035369;28;20464;-78
2023/02/08 09:54:44;;;;;;;6.10;5.23;;;8.40;83.10;;;;;;5035079;28;20496;-80
2023/02/08 09:57:15;;;;;;;6.60;5.10;;;8.50;84.60;;;;;;5034993;28;20425;-80
2023/02/08 09:59:54;;;;;;;6.53;4.73;;;8.60;81.00;;;;;;5016674;28;20425;-78
2023/02/08 10:02:26;;;;;;;4.60;4.17;;;8.70;78.20;;;;;;5000731;28;20423;-80
2023/02/08 10:05:09;;;;;;;5.67;5.03;;;8.70;77.60;;;;;;5000106;28;21004;-78
2023/02/08 10:07:35;;;;;;;5.37;4.60;;;8.90;79.60;;;;;;5016351;28;20409;-78
2023/02/08 10:10:05;;;;;;;11.10;5.20;;;9.10;76.60;;;;;;5033788;28;20514;-79
2023/02/08 10:13:09;;;;;;;5.77;4.00;;;9.30;72.90;;;;;;5015675;28;20456;-78
2023/02/08 10:15:46;;;;;;;4.77;4.27;;;9.50;70.50;;;;;;5011367;28;20432;-77
2023/02/08 10:18:23;;;;;;;7.50;3.93;;;9.80;68.90;;;;;;5033286;28;20413;-79
2023/02/08 10:21:15;;;;;;;5.40;4.20;;;10.00;62.00;;;;;;5015356;28;20452;-80
2023/02/08 10:24:05;;;;;;;5.53;4.67;;;10.20;62.00;;;;;;4998329;28;20425;-79
2023/02/08 10:26:44;;;;;;;4.97;4.20;;;10.40;62.60;;;;;;5033615;28;20853;-78
2023/02/08 10:29:40;;;;;;;5.77;4.07;;;10.60;57.50;;;;;;4999251;28;20938;-78
2023/02/08 10:32:21;;;;;;;5.10;4.27;;;10.90;61.70;;;;;;5015240;28;20513;-80
2023/02/08 10:34:58;;;;;;;6.00;4.57;;;11.10;54.70;;;;;;5032841;28;20762;-79
2023/02/08 10:37:35;;;;;;;4.77;3.83;;;11.20;57.70;;;;;;5014403;28;20439;-79
2023/02/08 10:40:22;;;;;;;4.93;4.23;;;11.40;55.20;;;;;;5031517;28;20417;-81
2023/02/08 10:43:04;;;;;;;6.37;5.10;;;11.70;56.60;;;;;;5032604;28;20762;-78
2023/02/08 10:45:40;;;;;;;5.33;4.83;;;12.10;56.70;;;;;;5014116;28;20941;-78
2023/02/08 10:48:14;;;;;;;5.97;5.40;;;12.30;57.00;;;;;;5031789;28;20418;-80
2023/02/08 10:50:46;;;;;;;5.40;4.87;;;12.40;55.90;;;;;;5014227;28;20457;-79
2023/02/08 10:53:17;;;;;;;8.40;4.77;;;12.50;55.70;;;;;;5013717;28;20417;-78
2023/02/08 10:55:45;;;;;;;6.03;5.07;;;12.30;53.30;;;;;;5013982;28;20428;-79
2023/02/08 10:58:23;;;;;;;5.43;4.50;;;11.90;49.90;;;;;;5013724;28;20832;-79
2023/02/08 11:00:50;;;;;;;6.60;4.60;;;11.40;50.30;;;;;;5031708;28;20452;-77
2023/02/08 11:03:28;;;;;;;5.07;4.23;;;10.90;48.70;;;;;;4997254;28;20455;-78
2023/02/08 11:05:54;;;;;;;5.80;4.70;;;10.70;49.70;;;;;;5031646;28;20425;-79
2023/02/08 11:08:24;;;;;;;5.70;5.10;;;10.70;48.50;;;;;;5031632;28;20504;-80
2023/02/08 11:10:59;;;;;;;5.33;4.40;;;10.70;51.00;;;;;;5013525;28;20550;-77
2023/02/08 11:13:51;;;;;;;5.40;4.57;;;10.40;48.70;;;;;;5031051;28;20408;-78
2023/02/08 11:16:22;;;;;;;5.10;3.87;;;10.30;50.50;;;;;;5009887;28;20449;-78
2023/02/08 11:18:55;;;;;;;5.03;4.53;;;10.20;50.60;;;;;;5012779;28;20412;-77
2023/02/08 11:21:32;;;;;;;6.33;5.13;;;10.00;52.00;;;;;;5029849;28;20441;-78
2023/02/08 11:24:01;;;;;;;5.93;4.70;;;9.90;51.10;;;;;;5014214;28;20443;-80
2023/02/08 11:26:29;;;;;;;7.00;4.93;;;9.70;52.80;;;;;;5018317;28;20456;-81
2023/02/08 11:29:15;;;;;;;5.27;4.40;;;9.60;50.50;;;;;;5017801;28;20457;-81
2023/02/08 11:32:13;;;;;;;4.97;4.47;;;9.70;52.00;;;;;;5001129;28;20464;-81
2023/02/08 11:34:39;;;;;;;4.83;4.33;;;10.60;51.30;;;;;;5016882;28;20412;-81
2023/02/08 11:37:31;;;;;;;4.93;3.90;;;10.90;50.60;;;;;;5000588;28;20431;-79
2023/02/08 11:39:58;;;;;;;6.40;4.47;;;10.60;48.00;;;;;;5013059;28;20812;-81
2023/02/08 11:42:27;;;;;;;5.90;4.10;;;10.30;48.10;;;;;;5034975;28;20437;-78
2023/02/08 11:44:54;;;;;;;5.97;4.67;;;9.80;48.70;;;;;;5016600;28;20508;-81
2023/02/08 11:47:25;;;;;;;4.40;3.90;;;9.80;52.00;;;;;;5034168;28;20500;-81
2023/02/08 11:49:53;;;;;;;4.60;3.90;;;9.90;54.70;;;;;;5014940;28;21059;-78
2023/02/08 11:52:25;;;;;;;9.07;3.90;;;10.30;52.70;;;;;;5032159;28;20409;-80
2023/02/08 11:54:53;;;;;;;7.20;4.70;;;10.50;49.30;;;;;;5031941;28;20440;-78
2023/02/08 11:57:21;;;;;;;5.53;4.40;;;10.50;52.40;;;;;;5012749;28;20417;-78
2023/02/08 11:59:49;;;;;;;4.80;3.60;;;10.80;54.10;;;;;;5012302;28;20417;-77
2023/02/08 12:02:42;;;;;;;4.27;3.80;;;11.30;54.00;;;;;;5012065;28;20905;-77
2023/02/08 12:05:17;;;;;;;4.97;4.00;;;11.80;54.50;;;;;;5029449;28;20425;-78
2023/02/08 12:08:01;;;;;;;6.57;3.87;;;12.10;51.20;;;;;;5029777;28;20431;-76
2023/02/08 12:10:34;;;;;;;4.70;3.67;;;12.30;48.70;;;;;;5029711;28;20468;-77
2023/02/08 12:13:12;;;;;;;5.43;4.03;;;12.30;46.30;;;;;;4995107;28;20414;-78
2023/02/08 12:15:41;;;;;;;5.13;3.97;;;12.30;50.80;;;;;;5029828;28;20417;-78
2023/02/08 12:18:15;;;;;;;4.33;3.73;;;12.10;49.30;;;;;;5029600;28;20421;-77
2023/02/08 12:20:44;;;;;;;5.23;3.30;;;12.10;45.20;;;;;;5011739;28;20446;-77
2023/02/08 12:23:34;;;;;;;4.60;3.63;;;12.20;48.00;;;;;;5028385;28;20424;-76
2023/02/08 12:26:41;;;;;;;3.73;3.20;;;12.30;48.70;;;;;;5012400;28;20451;-78
2023/02/08 12:29:26;;;;;;;3.97;3.47;;;12.40;47.70;;;;;;5029833;28;20412;-77
2023/02/08 13:09:35;;;;;;;5.00;2.60;;;11.50;42.60;;;;;;5034137;28;20398;-78
2023/02/08 13:12:03;;;;;;;5.03;3.63;;;11.40;43.00;;;;;;5016084;28;20496;-78
2023/02/08 13:14:38;;;;;;;3.90;3.60;;;11.40;43.60;;;;;;5016170;28;20913;-78
2023/02/08 13:17:20;;;;;;;3.60;3.03;;;11.40;44.30;;;;;;4999702;28;20439;-79
2023/02/08 13:20:03;;;;;;;3.57;2.87;;;11.30;45.00;;;;;;5015933;28;20787;-79
2023/02/08 13:22:37;;;;;;;5.37;3.20;;;11.30;44.50;;;;;;5015149;28;20414;-78
2023/02/08 13:25:05;;;;;;;3.30;3.00;;;11.30;44.00;;;;;;5016427;28;20760;-78
2023/02/08 13:27:31;;;;;;;3.43;2.80;;;11.20;43.00;;;;;;5032953;28;20413;-78
2023/02/08 13:29:57;;;;;;;8.80;3.20;;;11.20;42.50;;;;;;5033014;28;20959;-80
2023/02/08 13:39:34;;;;;;;5.27;3.73;;;11.00;43.30;;;;;;5014975;28;20476;-78
2023/02/08 13:42:03;;;;;;;3.07;2.77;;;10.90;41.80;;;;;;5005554;28;20468;-79
2023/02/08 13:47:58;;;;;;;4.90;3.10;;;10.80;41.00;;;;;;5036240;28;20436;-79
2023/02/08 13:50:37;;;;;;;3.10;2.70;;;10.70;40.10;;;;;;5002040;28;20889;-80